sensor_id;sensor_type;location;lat;lon;timestamp;P1;durP1;ratioP1;P2;durP2;ratioP2
23121;SDS011;11730;51.248;22.534;2023-06-22T00:00:02;17.15;;;10.85;;
23121;SDS011;11730;51.248;22.534;2023-06-22T00:02:34;12.63;;;10.38;;
23121;SDS011;11730;51.248;22.534;2023-06-22T00:05:01;12.82;;;10.35;;
23121;SDS011;11730;51.248;22.534;2023-06-22T00:07:28;12.68;;;9.88;;
23121;SDS011;11730;51.248;22.534;2023-06-22T00:09:56;14.77;;;10.55;;
23121;SDS011;11730;51.248;22.534;2023-06-22T00:12:23;12.98;;;10.52;;
23121;SDS011;11730;51.248;22.534;2023-06-22T00:14:50;13.18;;;10.68;;
23121;SDS011;11730;51.248;22.534;2023-06-22T00:17:18;12.38;;;9.60;;
23121;SDS011;11730;51.248;22.534;2023-06-22T00:19:46;11.73;;;10.25;;
23121;SDS011;11730;51.248;22.534;2023-06-22T00:22:14;14.57;;;10.15;;
23121;SDS011;11730;51.248;22.534;2023-06-22T00:24:43;13.43;;;10.63;;
23121;SDS011;11730;51.248;22.534;2023-06-22T00:27:10;14.18;;;10.75;;
23121;SDS011;11730;51.248;22.534;2023-06-22T00:29:37;14.10;;;10.70;;
23121;SDS011;11730;51.248;22.534;2023-06-22T00:32:05;13.82;;;10.25;;
23121;SDS011;11730;51.248;22.534;2023-06-22T00:34:32;15.93;;;10.23;;
23121;SDS011;11730;51.248;22.534;2023-06-22T00:36:59;12.40;;;9.82;;
23121;SDS011;11730;51.248;22.534;2023-06-22T00:39:26;14.23;;;10.52;;
23121;SDS011;11730;51.248;22.534;2023-06-22T00:41:53;13.85;;;11.35;;
23121;SDS011;11730;51.248;22.534;2023-06-22T00:44:21;14.52;;;11.32;;
23121;SDS011;11730;51.248;22.534;2023-06-22T00:46:48;13.52;;;11.05;;
23121;SDS011;11730;51.248;22.534;2023-06-22T00:49:15;12.35;;;10.80;;
23121;SDS011;11730;51.248;22.534;2023-06-22T00:51:43;14.45;;;10.73;;
23121;SDS011;11730;51.248;22.534;2023-06-22T00:54:12;16.58;;;11.48;;
23121;SDS011;11730;51.248;22.534;2023-06-22T00:56:40;16.65;;;10.68;;
23121;SDS011;11730;51.248;22.534;2023-06-22T00:59:08;14.57;;;11.50;;
23121;SDS011;11730;51.248;22.534;2023-06-22T01:01:38;15.65;;;11.85;;
23121;SDS011;11730;51.248;22.534;2023-06-22T01:04:07;15.60;;;11.45;;
23121;SDS011;11730;51.248;22.534;2023-06-22T01:06:36;17.33;;;11.90;;
23121;SDS011;11730;51.248;22.534;2023-06-22T01:09:20;13.10;;;11.13;;
23121;SDS011;11730;51.248;22.534;2023-06-22T01:11:54;19.02;;;12.05;;
23121;SDS011;11730;51.248;22.534;2023-06-22T01:14:28;14.88;;;11.20;;
23121;SDS011;11730;51.248;22.534;2023-06-22T01:16:59;13.25;;;10.85;;
23121;SDS011;11730;51.248;22.534;2023-06-22T01:19:46;15.77;;;11.77;;
23121;SDS011;11730;51.248;22.534;2023-06-22T01:22:26;16.35;;;11.55;;
23121;SDS011;11730;51.248;22.534;2023-06-22T01:25:06;15.23;;;11.68;;
23121;SDS011;11730;51.248;22.534;2023-06-22T01:30:27;15.52;;;11.82;;
23121;SDS011;11730;51.248;22.534;2023-06-22T01:32:57;20.17;;;12.40;;
23121;SDS011;11730;51.248;22.534;2023-06-22T01:35:25;14.32;;;11.63;;
23121;SDS011;11730;51.248;22.534;2023-06-22T01:37:52;16.25;;;12.23;;
23121;SDS011;11730;51.248;22.534;2023-06-22T01:40:19;16.52;;;12.07;;
23121;SDS011;11730;51.248;22.534;2023-06-22T01:42:47;14.70;;;11.70;;
23121;SDS011;11730;51.248;22.534;2023-06-22T01:45:15;13.65;;;11.43;;
23121;SDS011;11730;51.248;22.534;2023-06-22T01:47:43;17.45;;;12.82;;
23121;SDS011;11730;51.248;22.534;2023-06-22T01:50:11;15.93;;;12.27;;
23121;SDS011;11730;51.248;22.534;2023-06-22T01:52:38;18.45;;;13.05;;
23121;SDS011;11730;51.248;22.534;2023-06-22T01:55:06;17.20;;;12.10;;
23121;SDS011;11730;51.248;22.534;2023-06-22T01:57:34;15.90;;;12.30;;
23121;SDS011;11730;51.248;22.534;2023-06-22T02:00:03;18.02;;;12.80;;
23121;SDS011;11730;51.248;22.534;2023-06-22T02:02:33;24.08;;;12.77;;
23121;SDS011;11730;51.248;22.534;2023-06-22T02:05:33;17.35;;;13.10;;
23121;SDS011;11730;51.248;22.534;2023-06-22T02:10:38;20.30;;;13.35;;
23121;SDS011;11730;51.248;22.534;2023-06-22T02:13:08;17.83;;;13.30;;
23121;SDS011;11730;51.248;22.534;2023-06-22T02:15:36;15.93;;;13.18;;
23121;SDS011;11730;51.248;22.534;2023-06-22T02:18:04;14.98;;;12.30;;
23121;SDS011;11730;51.248;22.534;2023-06-22T02:20:32;14.50;;;12.48;;
23121;SDS011;11730;51.248;22.534;2023-06-22T02:22:59;15.38;;;12.82;;
23121;SDS011;11730;51.248;22.534;2023-06-22T02:25:26;17.17;;;12.85;;
23121;SDS011;11730;51.248;22.534;2023-06-22T02:27:53;16.10;;;13.00;;
23121;SDS011;11730;51.248;22.534;2023-06-22T02:30:20;17.63;;;12.80;;
23121;SDS011;11730;51.248;22.534;2023-06-22T02:32:47;21.80;;;13.73;;
23121;SDS011;11730;51.248;22.534;2023-06-22T02:35:15;16.85;;;12.52;;
23121;SDS011;11730;51.248;22.534;2023-06-22T02:37:41;19.63;;;13.57;;
23121;SDS011;11730;51.248;22.534;2023-06-22T02:40:09;17.40;;;13.50;;
23121;SDS011;11730;51.248;22.534;2023-06-22T02:42:36;21.75;;;13.55;;
23121;SDS011;11730;51.248;22.534;2023-06-22T02:45:04;18.67;;;13.82;;
23121;SDS011;11730;51.248;22.534;2023-06-22T02:47:31;22.20;;;14.15;;
23121;SDS011;11730;51.248;22.534;2023-06-22T02:49:58;20.50;;;15.52;;
23121;SDS011;11730;51.248;22.534;2023-06-22T02:52:25;23.17;;;14.23;;
23121;SDS011;11730;51.248;22.534;2023-06-22T02:54:52;20.95;;;14.65;;
23121;SDS011;11730;51.248;22.534;2023-06-22T02:57:19;22.98;;;14.45;;
23121;SDS011;11730;51.248;22.534;2023-06-22T02:59:47;17.23;;;13.98;;
23121;SDS011;11730;51.248;22.534;2023-06-22T03:02:14;18.65;;;14.60;;
23121;SDS011;11730;51.248;22.534;2023-06-22T03:04:41;24.88;;;15.27;;
23121;SDS011;11730;51.248;22.534;2023-06-22T03:07:09;22.35;;;14.77;;
23121;SDS011;11730;51.248;22.534;2023-06-22T03:09:36;21.83;;;14.27;;
23121;SDS011;11730;51.248;22.534;2023-06-22T03:12:04;23.27;;;14.55;;
23121;SDS011;11730;51.248;22.534;2023-06-22T03:14:31;21.52;;;15.48;;
23121;SDS011;11730;51.248;22.534;2023-06-22T03:16:58;19.73;;;14.77;;
23121;SDS011;11730;51.248;22.534;2023-06-22T03:19:29;23.02;;;14.90;;
23121;SDS011;11730;51.248;22.534;2023-06-22T03:21:59;20.83;;;14.88;;
23121;SDS011;11730;51.248;22.534;2023-06-22T03:24:26;21.48;;;14.38;;
23121;SDS011;11730;51.248;22.534;2023-06-22T03:26:55;23.38;;;16.13;;
23121;SDS011;11730;51.248;22.534;2023-06-22T03:29:23;23.80;;;14.82;;
23121;SDS011;11730;51.248;22.534;2023-06-22T03:31:54;27.35;;;15.90;;
23121;SDS011;11730;51.248;22.534;2023-06-22T03:34:21;27.73;;;16.13;;
23121;SDS011;11730;51.248;22.534;2023-06-22T03:36:48;21.35;;;15.65;;
23121;SDS011;11730;51.248;22.534;2023-06-22T03:39:16;26.60;;;15.35;;
23121;SDS011;11730;51.248;22.534;2023-06-22T03:41:43;23.10;;;15.68;;
23121;SDS011;11730;51.248;22.534;2023-06-22T03:44:10;23.40;;;15.98;;
23121;SDS011;11730;51.248;22.534;2023-06-22T03:46:38;24.13;;;16.60;;
23121;SDS011;11730;51.248;22.534;2023-06-22T03:49:05;22.90;;;16.75;;
23121;SDS011;11730;51.248;22.534;2023-06-22T03:51:33;29.15;;;16.75;;
23121;SDS011;11730;51.248;22.534;2023-06-22T03:54:00;25.92;;;16.42;;
23121;SDS011;11730;51.248;22.534;2023-06-22T03:56:27;22.65;;;16.73;;
23121;SDS011;11730;51.248;22.534;2023-06-22T03:58:55;21.63;;;15.68;;
23121;SDS011;11730;51.248;22.534;2023-06-22T04:01:22;20.75;;;15.93;;
23121;SDS011;11730;51.248;22.534;2023-06-22T04:03:49;21.40;;;15.57;;
23121;SDS011;11730;51.248;22.534;2023-06-22T04:06:17;24.13;;;16.40;;
23121;SDS011;11730;51.248;22.534;2023-06-22T04:08:45;24.13;;;16.42;;
23121;SDS011;11730;51.248;22.534;2023-06-22T04:13:44;23.67;;;16.30;;
23121;SDS011;11730;51.248;22.534;2023-06-22T04:16:11;24.48;;;15.73;;
23121;SDS011;11730;51.248;22.534;2023-06-22T04:18:38;22.48;;;15.93;;
23121;SDS011;11730;51.248;22.534;2023-06-22T04:21:06;22.25;;;15.43;;
23121;SDS011;11730;51.248;22.534;2023-06-22T04:23:33;20.92;;;14.18;;
23121;SDS011;11730;51.248;22.534;2023-06-22T04:26:00;20.88;;;15.65;;
23121;SDS011;11730;51.248;22.534;2023-06-22T04:28:27;18.55;;;15.02;;
23121;SDS011;11730;51.248;22.534;2023-06-22T04:30:54;20.00;;;16.00;;
23121;SDS011;11730;51.248;22.534;2023-06-22T04:33:24;24.45;;;14.88;;
23121;SDS011;11730;51.248;22.534;2023-06-22T04:35:51;22.95;;;16.08;;
23121;SDS011;11730;51.248;22.534;2023-06-22T04:38:18;24.25;;;15.65;;
23121;SDS011;11730;51.248;22.534;2023-06-22T04:40:48;21.80;;;14.90;;
23121;SDS011;11730;51.248;22.534;2023-06-22T04:43:15;22.05;;;15.75;;
23121;SDS011;11730;51.248;22.534;2023-06-22T04:45:42;21.48;;;15.23;;
23121;SDS011;11730;51.248;22.534;2023-06-22T04:48:09;18.13;;;14.35;;
23121;SDS011;11730;51.248;22.534;2023-06-22T04:50:42;22.00;;;14.95;;
23121;SDS011;11730;51.248;22.534;2023-06-22T04:53:10;16.42;;;12.98;;
23121;SDS011;11730;51.248;22.534;2023-06-22T04:55:39;18.17;;;13.25;;
23121;SDS011;11730;51.248;22.534;2023-06-22T04:58:08;26.63;;;14.02;;
23121;SDS011;11730;51.248;22.534;2023-06-22T05:00:35;18.63;;;14.15;;
23121;SDS011;11730;51.248;22.534;2023-06-22T05:03:02;17.95;;;12.35;;
23121;SDS011;11730;51.248;22.534;2023-06-22T05:05:45;17.50;;;12.73;;
23121;SDS011;11730;51.248;22.534;2023-06-22T05:08:13;16.90;;;13.05;;
23121;SDS011;11730;51.248;22.534;2023-06-22T05:10:40;18.90;;;12.73;;
23121;SDS011;11730;51.248;22.534;2023-06-22T05:13:24;14.93;;;12.00;;
23121;SDS011;11730;51.248;22.534;2023-06-22T05:15:53;18.75;;;11.48;;
23121;SDS011;11730;51.248;22.534;2023-06-22T05:18:27;17.95;;;12.70;;
23121;SDS011;11730;51.248;22.534;2023-06-22T05:20:56;18.08;;;11.95;;
23121;SDS011;11730;51.248;22.534;2023-06-22T05:23:24;18.05;;;11.90;;
23121;SDS011;11730;51.248;22.534;2023-06-22T05:25:51;16.67;;;11.80;;
23121;SDS011;11730;51.248;22.534;2023-06-22T05:28:18;22.20;;;12.95;;
23121;SDS011;11730;51.248;22.534;2023-06-22T05:30:49;18.17;;;12.45;;
23121;SDS011;11730;51.248;22.534;2023-06-22T05:33:17;19.08;;;12.68;;
23121;SDS011;11730;51.248;22.534;2023-06-22T05:35:44;19.83;;;12.70;;
23121;SDS011;11730;51.248;22.534;2023-06-22T05:38:12;19.00;;;12.57;;
23121;SDS011;11730;51.248;22.534;2023-06-22T05:40:39;16.38;;;11.73;;
23121;SDS011;11730;51.248;22.534;2023-06-22T05:43:06;19.35;;;12.07;;
23121;SDS011;11730;51.248;22.534;2023-06-22T05:45:33;19.60;;;12.55;;
23121;SDS011;11730;51.248;22.534;2023-06-22T05:48:00;14.45;;;11.82;;
23121;SDS011;11730;51.248;22.534;2023-06-22T05:50:28;23.00;;;13.00;;
23121;SDS011;11730;51.248;22.534;2023-06-22T05:52:56;23.73;;;11.77;;
23121;SDS011;11730;51.248;22.534;2023-06-22T05:55:22;19.52;;;13.38;;
23121;SDS011;11730;51.248;22.534;2023-06-22T05:57:49;17.20;;;11.80;;
23121;SDS011;11730;51.248;22.534;2023-06-22T06:00:17;17.55;;;12.57;;
23121;SDS011;11730;51.248;22.534;2023-06-22T06:02:44;22.63;;;12.73;;
23121;SDS011;11730;51.248;22.534;2023-06-22T06:05:11;20.48;;;12.52;;
23121;SDS011;11730;51.248;22.534;2023-06-22T06:07:42;19.00;;;11.02;;
23121;SDS011;11730;51.248;22.534;2023-06-22T06:10:09;16.63;;;11.25;;
23121;SDS011;11730;51.248;22.534;2023-06-22T06:12:36;20.75;;;13.60;;
23121;SDS011;11730;51.248;22.534;2023-06-22T06:15:04;26.45;;;12.15;;
23121;SDS011;11730;51.248;22.534;2023-06-22T06:17:34;33.53;;;14.52;;
23121;SDS011;11730;51.248;22.534;2023-06-22T06:20:01;21.17;;;12.77;;
23121;SDS011;11730;51.248;22.534;2023-06-22T06:22:30;20.40;;;12.48;;
23121;SDS011;11730;51.248;22.534;2023-06-22T06:24:58;23.60;;;13.13;;
23121;SDS011;11730;51.248;22.534;2023-06-22T06:27:25;22.30;;;12.57;;
23121;SDS011;11730;51.248;22.534;2023-06-22T06:29:55;27.25;;;16.13;;
23121;SDS011;11730;51.248;22.534;2023-06-22T06:32:22;28.98;;;18.40;;
23121;SDS011;11730;51.248;22.534;2023-06-22T06:34:50;21.00;;;17.15;;
23121;SDS011;11730;51.248;22.534;2023-06-22T06:37:17;19.40;;;13.15;;
23121;SDS011;11730;51.248;22.534;2023-06-22T06:39:44;44.83;;;14.82;;
23121;SDS011;11730;51.248;22.534;2023-06-22T06:42:12;24.27;;;14.38;;
23121;SDS011;11730;51.248;22.534;2023-06-22T06:44:39;30.42;;;17.55;;
23121;SDS011;11730;51.248;22.534;2023-06-22T06:47:05;27.05;;;15.38;;
23121;SDS011;11730;51.248;22.534;2023-06-22T06:49:33;17.27;;;13.95;;
23121;SDS011;11730;51.248;22.534;2023-06-22T06:52:00;19.50;;;13.98;;
23121;SDS011;11730;51.248;22.534;2023-06-22T06:54:27;22.88;;;14.88;;
23121;SDS011;11730;51.248;22.534;2023-06-22T06:56:54;20.30;;;14.82;;
23121;SDS011;11730;51.248;22.534;2023-06-22T06:59:21;20.38;;;14.13;;
23121;SDS011;11730;51.248;22.534;2023-06-22T07:01:48;18.42;;;13.70;;
23121;SDS011;11730;51.248;22.534;2023-06-22T07:04:15;17.15;;;13.45;;
23121;SDS011;11730;51.248;22.534;2023-06-22T07:06:42;18.48;;;13.93;;
23121;SDS011;11730;51.248;22.534;2023-06-22T07:09:10;17.70;;;13.88;;
23121;SDS011;11730;51.248;22.534;2023-06-22T07:11:37;19.30;;;13.10;;
23121;SDS011;11730;51.248;22.534;2023-06-22T07:14:04;18.40;;;14.88;;
23121;SDS011;11730;51.248;22.534;2023-06-22T07:16:32;21.55;;;14.27;;
23121;SDS011;11730;51.248;22.534;2023-06-22T07:18:59;21.52;;;15.20;;
23121;SDS011;11730;51.248;22.534;2023-06-22T07:21:26;21.50;;;14.18;;
23121;SDS011;11730;51.248;22.534;2023-06-22T07:23:54;22.25;;;13.65;;
23121;SDS011;11730;51.248;22.534;2023-06-22T07:26:21;24.70;;;15.13;;
23121;SDS011;11730;51.248;22.534;2023-06-22T07:28:48;20.33;;;14.35;;
23121;SDS011;11730;51.248;22.534;2023-06-22T07:31:17;23.83;;;18.60;;
23121;SDS011;11730;51.248;22.534;2023-06-22T07:33:44;19.13;;;15.23;;
23121;SDS011;11730;51.248;22.534;2023-06-22T07:36:11;22.25;;;15.75;;
23121;SDS011;11730;51.248;22.534;2023-06-22T07:38:39;18.63;;;15.32;;
23121;SDS011;11730;51.248;22.534;2023-06-22T07:41:06;19.27;;;15.50;;
23121;SDS011;11730;51.248;22.534;2023-06-22T07:43:33;22.33;;;16.20;;
23121;SDS011;11730;51.248;22.534;2023-06-22T07:46:03;22.42;;;18.02;;
23121;SDS011;11730;51.248;22.534;2023-06-22T07:48:30;23.15;;;16.30;;
23121;SDS011;11730;51.248;22.534;2023-06-22T07:50:57;20.90;;;15.30;;
23121;SDS011;11730;51.248;22.534;2023-06-22T07:53:25;27.17;;;16.55;;
23121;SDS011;11730;51.248;22.534;2023-06-22T07:55:52;21.00;;;15.32;;
23121;SDS011;11730;51.248;22.534;2023-06-22T07:58:19;20.20;;;15.52;;
23121;SDS011;11730;51.248;22.534;2023-06-22T08:00:47;20.48;;;15.80;;
23121;SDS011;11730;51.248;22.534;2023-06-22T08:03:15;22.02;;;16.75;;
23121;SDS011;11730;51.248;22.534;2023-06-22T08:05:43;22.58;;;18.08;;
23121;SDS011;11730;51.248;22.534;2023-06-22T08:08:10;20.33;;;17.23;;
23121;SDS011;11730;51.248;22.534;2023-06-22T08:10:37;21.35;;;16.70;;
23121;SDS011;11730;51.248;22.534;2023-06-22T08:13:05;21.45;;;18.27;;
23121;SDS011;11730;51.248;22.534;2023-06-22T08:15:32;20.95;;;18.08;;
23121;SDS011;11730;51.248;22.534;2023-06-22T08:17:59;23.15;;;17.98;;
23121;SDS011;11730;51.248;22.534;2023-06-22T08:20:27;20.50;;;16.95;;
23121;SDS011;11730;51.248;22.534;2023-06-22T08:22:55;21.95;;;17.02;;
23121;SDS011;11730;51.248;22.534;2023-06-22T08:25:24;19.92;;;16.40;;
23121;SDS011;11730;51.248;22.534;2023-06-22T08:27:52;23.20;;;15.90;;
23121;SDS011;11730;51.248;22.534;2023-06-22T08:30:19;19.70;;;17.40;;
23121;SDS011;11730;51.248;22.534;2023-06-22T08:32:46;20.88;;;17.45;;
23121;SDS011;11730;51.248;22.534;2023-06-22T08:35:13;23.15;;;17.27;;
23121;SDS011;11730;51.248;22.534;2023-06-22T08:37:40;22.35;;;18.90;;
23121;SDS011;11730;51.248;22.534;2023-06-22T08:40:08;22.58;;;17.52;;
23121;SDS011;11730;51.248;22.534;2023-06-22T08:42:37;22.17;;;17.55;;
23121;SDS011;11730;51.248;22.534;2023-06-22T08:45:04;24.90;;;17.17;;
23121;SDS011;11730;51.248;22.534;2023-06-22T08:47:32;24.58;;;18.13;;
23121;SDS011;11730;51.248;22.534;2023-06-22T08:49:59;26.88;;;17.65;;
23121;SDS011;11730;51.248;22.534;2023-06-22T08:52:28;20.77;;;17.40;;
23121;SDS011;11730;51.248;22.534;2023-06-22T08:54:55;19.55;;;17.45;;
23121;SDS011;11730;51.248;22.534;2023-06-22T08:57:24;26.42;;;16.73;;
23121;SDS011;11730;51.248;22.534;2023-06-22T08:59:51;22.77;;;17.33;;
23121;SDS011;11730;51.248;22.534;2023-06-22T09:02:19;37.85;;;17.55;;
23121;SDS011;11730;51.248;22.534;2023-06-22T09:04:46;30.98;;;16.50;;
23121;SDS011;11730;51.248;22.534;2023-06-22T09:07:15;23.95;;;16.55;;
23121;SDS011;11730;51.248;22.534;2023-06-22T09:09:49;18.92;;;16.30;;
23121;SDS011;11730;51.248;22.534;2023-06-22T09:12:16;27.50;;;17.30;;
23121;SDS011;11730;51.248;22.534;2023-06-22T09:14:46;20.50;;;17.08;;
23121;SDS011;11730;51.248;22.534;2023-06-22T09:17:13;24.77;;;17.60;;
23121;SDS011;11730;51.248;22.534;2023-06-22T09:19:40;27.50;;;17.70;;
23121;SDS011;11730;51.248;22.534;2023-06-22T09:22:07;27.95;;;17.30;;
23121;SDS011;11730;51.248;22.534;2023-06-22T09:24:34;26.92;;;17.92;;
23121;SDS011;11730;51.248;22.534;2023-06-22T09:27:01;25.08;;;17.60;;
23121;SDS011;11730;51.248;22.534;2023-06-22T09:29:28;23.65;;;16.92;;
23121;SDS011;11730;51.248;22.534;2023-06-22T09:32:00;23.15;;;17.25;;
23121;SDS011;11730;51.248;22.534;2023-06-22T09:34:27;20.20;;;16.42;;
23121;SDS011;11730;51.248;22.534;2023-06-22T09:36:54;18.63;;;15.77;;
23121;SDS011;11730;51.248;22.534;2023-06-22T09:39:23;29.88;;;15.82;;
23121;SDS011;11730;51.248;22.534;2023-06-22T09:41:50;23.02;;;16.35;;
23121;SDS011;11730;51.248;22.534;2023-06-22T09:44:17;22.50;;;15.18;;
23121;SDS011;11730;51.248;22.534;2023-06-22T09:46:45;21.15;;;16.05;;
23121;SDS011;11730;51.248;22.534;2023-06-22T09:49:11;18.08;;;15.07;;
23121;SDS011;11730;51.248;22.534;2023-06-22T09:51:39;21.40;;;15.77;;
23121;SDS011;11730;51.248;22.534;2023-06-22T09:54:06;18.13;;;15.60;;
23121;SDS011;11730;51.248;22.534;2023-06-22T09:56:33;18.20;;;16.00;;
23121;SDS011;11730;51.248;22.534;2023-06-22T09:59:01;23.55;;;16.08;;
23121;SDS011;11730;51.248;22.534;2023-06-22T10:01:43;27.48;;;16.42;;
23121;SDS011;11730;51.248;22.534;2023-06-22T10:04:11;19.45;;;15.32;;
23121;SDS011;11730;51.248;22.534;2023-06-22T10:06:38;17.25;;;15.35;;
23121;SDS011;11730;51.248;22.534;2023-06-22T10:09:07;17.48;;;15.68;;
23121;SDS011;11730;51.248;22.534;2023-06-22T10:11:34;17.85;;;15.60;;
23121;SDS011;11730;51.248;22.534;2023-06-22T10:14:02;23.67;;;16.13;;
23121;SDS011;11730;51.248;22.534;2023-06-22T10:16:30;21.42;;;17.23;;
23121;SDS011;11730;51.248;22.534;2023-06-22T10:18:58;26.55;;;19.60;;
23121;SDS011;11730;51.248;22.534;2023-06-22T10:21:26;22.73;;;20.27;;
23121;SDS011;11730;51.248;22.534;2023-06-22T10:23:55;28.40;;;22.30;;
23121;SDS011;11730;51.248;22.534;2023-06-22T10:26:22;25.98;;;22.02;;
23121;SDS011;11730;51.248;22.534;2023-06-22T10:28:49;23.40;;;20.90;;
23121;SDS011;11730;51.248;22.534;2023-06-22T10:31:25;26.00;;;20.55;;
23121;SDS011;11730;51.248;22.534;2023-06-22T10:33:54;28.25;;;19.17;;
23121;SDS011;11730;51.248;22.534;2023-06-22T10:36:21;26.42;;;18.77;;
23121;SDS011;11730;51.248;22.534;2023-06-22T10:38:49;23.25;;;19.77;;
23121;SDS011;11730;51.248;22.534;2023-06-22T10:41:16;23.92;;;18.83;;
23121;SDS011;11730;51.248;22.534;2023-06-22T10:43:43;20.60;;;16.70;;
23121;SDS011;11730;51.248;22.534;2023-06-22T10:46:11;19.25;;;16.83;;
23121;SDS011;11730;51.248;22.534;2023-06-22T10:48:38;20.15;;;17.45;;
23121;SDS011;11730;51.248;22.534;2023-06-22T10:51:05;18.23;;;16.42;;
23121;SDS011;11730;51.248;22.534;2023-06-22T10:53:32;19.45;;;17.45;;
23121;SDS011;11730;51.248;22.534;2023-06-22T10:55:59;19.90;;;16.60;;
23121;SDS011;11730;51.248;22.534;2023-06-22T10:58:26;18.73;;;15.55;;
23121;SDS011;11730;51.248;22.534;2023-06-22T11:00:53;18.00;;;14.20;;
23121;SDS011;11730;51.248;22.534;2023-06-22T11:03:20;15.45;;;13.75;;
23121;SDS011;11730;51.248;22.534;2023-06-22T11:05:48;15.77;;;12.93;;
23121;SDS011;11730;51.248;22.534;2023-06-22T11:08:15;15.05;;;13.45;;
23121;SDS011;11730;51.248;22.534;2023-06-22T11:10:42;13.80;;;12.27;;
23121;SDS011;11730;51.248;22.534;2023-06-22T11:13:10;20.33;;;13.48;;
23121;SDS011;11730;51.248;22.534;2023-06-22T11:15:38;18.45;;;14.00;;
23121;SDS011;11730;51.248;22.534;2023-06-22T11:18:06;19.70;;;13.73;;
23121;SDS011;11730;51.248;22.534;2023-06-22T11:20:34;15.23;;;13.60;;
23121;SDS011;11730;51.248;22.534;2023-06-22T11:23:05;12.63;;;11.27;;
23121;SDS011;11730;51.248;22.534;2023-06-22T11:25:35;19.17;;;11.75;;
23121;SDS011;11730;51.248;22.534;2023-06-22T11:28:04;18.27;;;11.25;;
23121;SDS011;11730;51.248;22.534;2023-06-22T11:30:31;17.13;;;11.57;;
23121;SDS011;11730;51.248;22.534;2023-06-22T11:32:58;15.05;;;12.27;;
23121;SDS011;11730;51.248;22.534;2023-06-22T11:35:26;13.55;;;11.75;;
23121;SDS011;11730;51.248;22.534;2023-06-22T11:37:53;17.67;;;11.60;;
23121;SDS011;11730;51.248;22.534;2023-06-22T11:40:22;15.18;;;12.38;;
23121;SDS011;11730;51.248;22.534;2023-06-22T11:42:49;15.52;;;12.27;;
23121;SDS011;11730;51.248;22.534;2023-06-22T11:45:16;14.27;;;11.05;;
23121;SDS011;11730;51.248;22.534;2023-06-22T11:47:44;15.43;;;11.40;;
23121;SDS011;11730;51.248;22.534;2023-06-22T11:50:11;13.77;;;11.00;;
23121;SDS011;11730;51.248;22.534;2023-06-22T11:52:38;14.82;;;11.82;;
23121;SDS011;11730;51.248;22.534;2023-06-22T11:55:06;13.77;;;11.80;;
23121;SDS011;11730;51.248;22.534;2023-06-22T11:57:34;14.88;;;12.00;;
23121;SDS011;11730;51.248;22.534;2023-06-22T12:00:03;20.08;;;11.38;;
23121;SDS011;11730;51.248;22.534;2023-06-22T12:02:44;15.85;;;12.77;;
23121;SDS011;11730;51.248;22.534;2023-06-22T12:05:12;19.38;;;15.73;;
23121;SDS011;11730;51.248;22.534;2023-06-22T12:07:39;20.55;;;18.25;;
23121;SDS011;11730;51.248;22.534;2023-06-22T12:10:06;18.08;;;14.23;;
23121;SDS011;11730;51.248;22.534;2023-06-22T12:12:33;15.05;;;13.35;;
23121;SDS011;11730;51.248;22.534;2023-06-22T12:15:01;15.68;;;9.95;;
23121;SDS011;11730;51.248;22.534;2023-06-22T12:17:30;15.27;;;12.40;;
23121;SDS011;11730;51.248;22.534;2023-06-22T12:19:57;12.93;;;10.10;;
23121;SDS011;11730;51.248;22.534;2023-06-22T12:22:24;10.13;;;9.05;;
23121;SDS011;11730;51.248;22.534;2023-06-22T12:24:51;12.48;;;9.48;;
23121;SDS011;11730;51.248;22.534;2023-06-22T12:27:19;14.65;;;11.05;;
23121;SDS011;11730;51.248;22.534;2023-06-22T12:29:46;10.95;;;9.02;;
23121;SDS011;11730;51.248;22.534;2023-06-22T12:32:14;15.13;;;8.88;;
23121;SDS011;11730;51.248;22.534;2023-06-22T12:34:42;9.77;;;7.93;;
23121;SDS011;11730;51.248;22.534;2023-06-22T12:37:09;9.73;;;7.78;;
23121;SDS011;11730;51.248;22.534;2023-06-22T12:39:36;12.02;;;7.55;;
23121;SDS011;11730;51.248;22.534;2023-06-22T12:42:04;9.68;;;7.60;;
23121;SDS011;11730;51.248;22.534;2023-06-22T12:44:31;8.07;;;7.28;;
23121;SDS011;11730;51.248;22.534;2023-06-22T12:46:59;8.90;;;8.00;;
23121;SDS011;11730;51.248;22.534;2023-06-22T12:49:26;9.90;;;7.63;;
23121;SDS011;11730;51.248;22.534;2023-06-22T12:51:53;11.52;;;9.30;;
23121;SDS011;11730;51.248;22.534;2023-06-22T12:54:20;12.32;;;9.48;;
23121;SDS011;11730;51.248;22.534;2023-06-22T12:56:47;12.13;;;10.68;;
23121;SDS011;11730;51.248;22.534;2023-06-22T12:59:14;15.02;;;12.35;;
23121;SDS011;11730;51.248;22.534;2023-06-22T13:01:43;11.85;;;10.10;;
23121;SDS011;11730;51.248;22.534;2023-06-22T13:04:12;11.70;;;10.05;;
23121;SDS011;11730;51.248;22.534;2023-06-22T13:06:41;12.80;;;11.50;;
23121;SDS011;11730;51.248;22.534;2023-06-22T13:09:09;16.50;;;11.73;;
23121;SDS011;11730;51.248;22.534;2023-06-22T13:11:39;13.60;;;11.23;;
23121;SDS011;11730;51.248;22.534;2023-06-22T13:14:06;14.30;;;11.20;;
23121;SDS011;11730;51.248;22.534;2023-06-22T13:16:33;14.07;;;11.80;;
23121;SDS011;11730;51.248;22.534;2023-06-22T13:19:00;13.88;;;11.23;;
23121;SDS011;11730;51.248;22.534;2023-06-22T13:21:28;15.02;;;10.45;;
23121;SDS011;11730;51.248;22.534;2023-06-22T13:23:55;12.98;;;11.45;;
23121;SDS011;11730;51.248;22.534;2023-06-22T13:26:22;13.00;;;9.88;;
23121;SDS011;11730;51.248;22.534;2023-06-22T13:28:49;10.35;;;9.25;;
23121;SDS011;11730;51.248;22.534;2023-06-22T13:31:16;9.85;;;8.77;;
23121;SDS011;11730;51.248;22.534;2023-06-22T13:33:44;10.77;;;9.45;;
23121;SDS011;11730;51.248;22.534;2023-06-22T13:36:14;8.60;;;7.53;;
23121;SDS011;11730;51.248;22.534;2023-06-22T13:38:41;9.23;;;8.15;;
23121;SDS011;11730;51.248;22.534;2023-06-22T13:41:08;14.07;;;8.90;;
23121;SDS011;11730;51.248;22.534;2023-06-22T13:43:35;9.75;;;8.43;;
23121;SDS011;11730;51.248;22.534;2023-06-22T13:46:02;10.07;;;8.43;;
23121;SDS011;11730;51.248;22.534;2023-06-22T13:48:29;11.75;;;9.13;;
23121;SDS011;11730;51.248;22.534;2023-06-22T13:50:56;15.95;;;9.30;;
23121;SDS011;11730;51.248;22.534;2023-06-22T13:53:24;11.15;;;8.35;;
23121;SDS011;11730;51.248;22.534;2023-06-22T13:55:52;9.77;;;8.32;;
23121;SDS011;11730;51.248;22.534;2023-06-22T13:58:19;14.55;;;8.68;;
23121;SDS011;11730;51.248;22.534;2023-06-22T14:00:46;10.57;;;7.85;;
23121;SDS011;11730;51.248;22.534;2023-06-22T14:03:14;10.60;;;8.25;;
23121;SDS011;11730;51.248;22.534;2023-06-22T14:05:43;10.48;;;8.50;;
23121;SDS011;11730;51.248;22.534;2023-06-22T14:08:11;14.20;;;11.02;;
23121;SDS011;11730;51.248;22.534;2023-06-22T14:10:58;9.02;;;7.43;;
23121;SDS011;11730;51.248;22.534;2023-06-22T14:13:25;13.38;;;11.95;;
23121;SDS011;11730;51.248;22.534;2023-06-22T14:15:52;10.90;;;8.43;;
23121;SDS011;11730;51.248;22.534;2023-06-22T14:18:20;11.27;;;9.55;;
23121;SDS011;11730;51.248;22.534;2023-06-22T14:20:48;9.30;;;8.15;;
23121;SDS011;11730;51.248;22.534;2023-06-22T14:23:15;8.48;;;6.85;;